sensor_id;sensor_type;location;lat;lon;timestamp;temperature;humidity
74171;DHT22;62526;50.948;6.590;2023-08-06T00:00:41;19.40;99.90
74171;DHT22;62526;50.948;6.590;2023-08-06T00:03:08;19.40;99.90
74171;DHT22;62526;50.948;6.590;2023-08-06T00:05:34;19.40;99.90
74171;DHT22;62526;50.948;6.590;2023-08-06T00:08:01;19.40;99.90
74171;DHT22;62526;50.948;6.590;2023-08-06T00:10:29;19.40;99.90
74171;DHT22;62526;50.948;6.590;2023-08-06T00:12:56;19.40;99.90
74171;DHT22;62526;50.948;6.590;2023-08-06T00:15:22;19.40;99.90
74171;DHT22;62526;50.948;6.590;2023-08-06T00:17:49;19.40;99.90
74171;DHT22;62526;50.948;6.590;2023-08-06T00:20:16;19.40;99.90
74171;DHT22;62526;50.948;6.590;2023-08-06T00:22:42;19.40;99.90
74171;DHT22;62526;50.948;6.590;2023-08-06T00:25:09;19.30;99.90
74171;DHT22;62526;50.948;6.590;2023-08-06T00:27:37;19.30;99.90
74171;DHT22;62526;50.948;6.590;2023-08-06T00:30:04;19.30;99.90
74171;DHT22;62526;50.948;6.590;2023-08-06T00:32:30;19.30;99.90
74171;DHT22;62526;50.948;6.590;2023-08-06T00:34:58;19.30;99.90
74171;DHT22;62526;50.948;6.590;2023-08-06T00:37:24;19.30;99.90
74171;DHT22;62526;50.948;6.590;2023-08-06T00:39:52;19.30;99.90
74171;DHT22;62526;50.948;6.590;2023-08-06T00:42:20;19.30;99.90
74171;DHT22;62526;50.948;6.590;2023-08-06T00:44:47;19.30;99.90
74171;DHT22;62526;50.948;6.590;2023-08-06T00:47:15;19.20;99.90
74171;DHT22;62526;50.948;6.590;2023-08-06T00:49:43;19.20;99.90
74171;DHT22;62526;50.948;6.590;2023-08-06T00:52:10;19.20;99.90
74171;DHT22;62526;50.948;6.590;2023-08-06T00:54:37;19.30;99.90
74171;DHT22;62526;50.948;6.590;2023-08-06T00:57:04;19.30;99.90
74171;DHT22;62526;50.948;6.590;2023-08-06T00:59:30;19.30;99.90
74171;DHT22;62526;50.948;6.590;2023-08-06T01:01:57;19.30;99.90
74171;DHT22;62526;50.948;6.590;2023-08-06T01:04:24;19.30;99.90
74171;DHT22;62526;50.948;6.590;2023-08-06T01:09:47;19.30;99.90
74171;DHT22;62526;50.948;6.590;2023-08-06T01:12:30;19.30;99.90
74171;DHT22;62526;50.948;6.590;2023-08-06T01:15:11;19.30;99.90
74171;DHT22;62526;50.948;6.590;2023-08-06T01:17:35;19.30;99.90
74171;DHT22;62526;50.948;6.590;2023-08-06T01:20:01;19.40;99.90
74171;DHT22;62526;50.948;6.590;2023-08-06T01:22:29;19.40;99.90
74171;DHT22;62526;50.948;6.590;2023-08-06T01:24:56;19.40;99.90
74171;DHT22;62526;50.948;6.590;2023-08-06T01:30:07;19.30;99.90
74171;DHT22;62526;50.948;6.590;2023-08-06T01:32:34;19.10;99.90
74171;DHT22;62526;50.948;6.590;2023-08-06T01:35:02;19.10;99.90
74171;DHT22;62526;50.948;6.590;2023-08-06T01:37:28;19.20;99.90
74171;DHT22;62526;50.948;6.590;2023-08-06T01:39:55;19.20;99.90
74171;DHT22;62526;50.948;6.590;2023-08-06T01:42:21;19.20;99.90
74171;DHT22;62526;50.948;6.590;2023-08-06T01:44:50;19.30;99.90
74171;DHT22;62526;50.948;6.590;2023-08-06T01:47:17;19.30;99.90
74171;DHT22;62526;50.948;6.590;2023-08-06T01:49:44;19.30;99.90
74171;DHT22;62526;50.948;6.590;2023-08-06T01:52:11;19.30;99.90
74171;DHT22;62526;50.948;6.590;2023-08-06T01:54:38;19.30;99.90
74171;DHT22;62526;50.948;6.590;2023-08-06T01:57:05;19.40;99.90
74171;DHT22;62526;50.948;6.590;2023-08-06T01:59:32;19.40;99.90
74171;DHT22;62526;50.948;6.590;2023-08-06T02:01:59;19.40;99.90
74171;DHT22;62526;50.948;6.590;2023-08-06T02:04:26;19.20;99.90
74171;DHT22;62526;50.948;6.590;2023-08-06T02:06:53;19.20;99.90
74171;DHT22;62526;50.948;6.590;2023-08-06T02:09:20;19.20;99.90
74171;DHT22;62526;50.948;6.590;2023-08-06T02:11:47;19.30;99.90
74171;DHT22;62526;50.948;6.590;2023-08-06T02:14:14;19.30;99.90
74171;DHT22;62526;50.948;6.590;2023-08-06T02:16:41;19.30;99.90
74171;DHT22;62526;50.948;6.590;2023-08-06T02:19:08;19.30;99.90
74171;DHT22;62526;50.948;6.590;2023-08-06T02:21:34;19.20;99.90
74171;DHT22;62526;50.948;6.590;2023-08-06T02:24:01;19.20;99.90
74171;DHT22;62526;50.948;6.590;2023-08-06T02:26:28;19.20;99.90
74171;DHT22;62526;50.948;6.590;2023-08-06T02:28:55;19.30;99.90
74171;DHT22;62526;50.948;6.590;2023-08-06T02:31:22;19.30;99.90
74171;DHT22;62526;50.948;6.590;2023-08-06T02:33:48;19.40;99.90
74171;DHT22;62526;50.948;6.590;2023-08-06T02:36:15;19.40;99.90
74171;DHT22;62526;50.948;6.590;2023-08-06T02:38:42;19.40;99.90
74171;DHT22;62526;50.948;6.590;2023-08-06T02:41:08;19.40;99.90
74171;DHT22;62526;50.948;6.590;2023-08-06T02:43:36;19.40;99.90
74171;DHT22;62526;50.948;6.590;2023-08-06T02:46:03;19.40;99.90
74171;DHT22;62526;50.948;6.590;2023-08-06T02:48:30;19.40;99.90
74171;DHT22;62526;50.948;6.590;2023-08-06T02:50:58;19.40;99.90
74171;DHT22;62526;50.948;6.590;2023-08-06T02:53:28;19.40;99.90
74171;DHT22;62526;50.948;6.590;2023-08-06T02:55:55;19.40;99.90
74171;DHT22;62526;50.948;6.590;2023-08-06T02:58:22;19.40;99.90
74171;DHT22;62526;50.948;6.590;2023-08-06T03:00:59;19.40;99.90
74171;DHT22;62526;50.948;6.590;2023-08-06T03:03:26;19.40;99.90
74171;DHT22;62526;50.948;6.590;2023-08-06T03:05:54;19.40;99.90
74171;DHT22;62526;50.948;6.590;2023-08-06T03:08:21;19.50;99.90
74171;DHT22;62526;50.948;6.590;2023-08-06T03:10:49;19.40;99.90
74171;DHT22;62526;50.948;6.590;2023-08-06T03:13:15;19.40;99.90
74171;DHT22;62526;50.948;6.590;2023-08-06T03:15:41;19.50;99.90
74171;DHT22;62526;50.948;6.590;2023-08-06T03:18:09;19.50;99.90
74171;DHT22;62526;50.948;6.590;2023-08-06T03:20:36;19.50;99.90
74171;DHT22;62526;50.948;6.590;2023-08-06T03:23:02;19.50;99.90
74171;DHT22;62526;50.948;6.590;2023-08-06T03:25:29;19.50;99.90
74171;DHT22;62526;50.948;6.590;2023-08-06T03:27:56;19.50;99.90
74171;DHT22;62526;50.948;6.590;2023-08-06T03:30:24;19.50;99.90
74171;DHT22;62526;50.948;6.590;2023-08-06T03:32:50;19.50;99.90
74171;DHT22;62526;50.948;6.590;2023-08-06T03:35:18;19.40;99.90
74171;DHT22;62526;50.948;6.590;2023-08-06T03:37:44;19.40;99.90
74171;DHT22;62526;50.948;6.590;2023-08-06T03:40:12;19.90;99.90
74171;DHT22;62526;50.948;6.590;2023-08-06T03:42:39;19.40;99.90
74171;DHT22;62526;50.948;6.590;2023-08-06T03:45:08;19.40;99.90
74171;DHT22;62526;50.948;6.590;2023-08-06T03:47:36;19.40;99.90
74171;DHT22;62526;50.948;6.590;2023-08-06T03:50:03;19.40;99.90
74171;DHT22;62526;50.948;6.590;2023-08-06T03:52:30;19.40;99.90
74171;DHT22;62526;50.948;6.590;2023-08-06T03:54:57;19.40;99.90
74171;DHT22;62526;50.948;6.590;2023-08-06T03:57:23;19.50;99.90
74171;DHT22;62526;50.948;6.590;2023-08-06T03:59:50;19.40;99.90
74171;DHT22;62526;50.948;6.590;2023-08-06T04:02:18;19.40;99.90
74171;DHT22;62526;50.948;6.590;2023-08-06T04:04:44;19.40;99.90
74171;DHT22;62526;50.948;6.590;2023-08-06T04:07:11;19.40;99.90
74171;DHT22;62526;50.948;6.590;2023-08-06T04:12:16;19.20;99.90
74171;DHT22;62526;50.948;6.590;2023-08-06T04:14:42;19.20;99.90
74171;DHT22;62526;50.948;6.590;2023-08-06T04:17:10;19.20;99.90
74171;DHT22;62526;50.948;6.590;2023-08-06T04:19:39;19.30;99.90
74171;DHT22;62526;50.948;6.590;2023-08-06T04:22:06;19.30;99.90
74171;DHT22;62526;50.948;6.590;2023-08-06T04:24:32;19.30;99.90
74171;DHT22;62526;50.948;6.590;2023-08-06T04:26:59;19.30;99.90
74171;DHT22;62526;50.948;6.590;2023-08-06T04:29:27;19.30;99.90
74171;DHT22;62526;50.948;6.590;2023-08-06T04:31:53;19.30;99.90
74171;DHT22;62526;50.948;6.590;2023-08-06T04:34:21;19.30;99.90
74171;DHT22;62526;50.948;6.590;2023-08-06T04:36:48;19.30;99.90
74171;DHT22;62526;50.948;6.590;2023-08-06T04:39:14;19.30;99.90
74171;DHT22;62526;50.948;6.590;2023-08-06T04:41:41;19.30;99.90
74171;DHT22;62526;50.948;6.590;2023-08-06T04:44:08;19.30;99.90
74171;DHT22;62526;50.948;6.590;2023-08-06T04:46:36;19.30;99.90
74171;DHT22;62526;50.948;6.590;2023-08-06T04:49:03;19.30;99.90
74171;DHT22;62526;50.948;6.590;2023-08-06T04:51:30;19.30;99.90
74171;DHT22;62526;50.948;6.590;2023-08-06T04:53:56;19.30;99.90
74171;DHT22;62526;50.948;6.590;2023-08-06T04:56:23;19.30;99.90
74171;DHT22;62526;50.948;6.590;2023-08-06T04:58:50;19.30;99.90
74171;DHT22;62526;50.948;6.590;2023-08-06T05:01:18;19.30;99.90
74171;DHT22;62526;50.948;6.590;2023-08-06T05:03:44;19.40;99.90
74171;DHT22;62526;50.948;6.590;2023-08-06T05:06:11;19.40;99.90
74171;DHT22;62526;50.948;6.590;2023-08-06T05:08:38;19.40;99.90
74171;DHT22;62526;50.948;6.590;2023-08-06T05:11:06;19.40;99.90
74171;DHT22;62526;50.948;6.590;2023-08-06T05:13:32;19.50;99.90
74171;DHT22;62526;50.948;6.590;2023-08-06T05:15:59;19.50;99.90
74171;DHT22;62526;50.948;6.590;2023-08-06T05:18:26;19.50;99.90
74171;DHT22;62526;50.948;6.590;2023-08-06T05:20:53;19.50;99.90
74171;DHT22;62526;50.948;6.590;2023-08-06T05:23:20;19.50;99.90
74171;DHT22;62526;50.948;6.590;2023-08-06T05:25:46;19.50;99.90
74171;DHT22;62526;50.948;6.590;2023-08-06T05:28:13;19.50;99.90
74171;DHT22;62526;50.948;6.590;2023-08-06T05:30:40;19.60;99.90
74171;DHT22;62526;50.948;6.590;2023-08-06T05:33:07;19.60;99.90
74171;DHT22;62526;50.948;6.590;2023-08-06T05:35:33;19.60;99.90
74171;DHT22;62526;50.948;6.590;2023-08-06T05:38:00;19.60;99.90
74171;DHT22;62526;50.948;6.590;2023-08-06T05:40:30;19.60;99.90
74171;DHT22;62526;50.948;6.590;2023-08-06T05:42:57;19.50;99.90
74171;DHT22;62526;50.948;6.590;2023-08-06T05:45:26;19.50;99.90
74171;DHT22;62526;50.948;6.590;2023-08-06T05:47:52;19.50;99.90
74171;DHT22;62526;50.948;6.590;2023-08-06T05:50:20;19.50;99.90
74171;DHT22;62526;50.948;6.590;2023-08-06T05:52:48;19.50;99.90
74171;DHT22;62526;50.948;6.590;2023-08-06T05:55:17;19.60;99.90
74171;DHT22;62526;50.948;6.590;2023-08-06T05:57:45;19.60;99.90
74171;DHT22;62526;50.948;6.590;2023-08-06T06:00:12;19.60;99.90
74171;DHT22;62526;50.948;6.590;2023-08-06T06:02:38;19.60;99.90
74171;DHT22;62526;50.948;6.590;2023-08-06T06:05:05;19.60;99.90
74171;DHT22;62526;50.948;6.590;2023-08-06T06:07:32;19.60;99.90
74171;DHT22;62526;50.948;6.590;2023-08-06T06:10:02;19.60;99.90
74171;DHT22;62526;50.948;6.590;2023-08-06T06:12:31;19.60;99.90
74171;DHT22;62526;50.948;6.590;2023-08-06T06:14:57;19.60;99.90
74171;DHT22;62526;50.948;6.590;2023-08-06T06:17:25;19.60;99.90
74171;DHT22;62526;50.948;6.590;2023-08-06T06:19:54;19.60;99.90
74171;DHT22;62526;50.948;6.590;2023-08-06T06:22:20;19.70;99.90
74171;DHT22;62526;50.948;6.590;2023-08-06T06:24:49;19.80;99.90
74171;DHT22;62526;50.948;6.590;2023-08-06T06:27:16;19.70;99.90
74171;DHT22;62526;50.948;6.590;2023-08-06T06:29:43;19.80;99.90
74171;DHT22;62526;50.948;6.590;2023-08-06T06:32:10;19.80;99.90
74171;DHT22;62526;50.948;6.590;2023-08-06T06:34:37;19.90;99.90
74171;DHT22;62526;50.948;6.590;2023-08-06T06:37:04;19.90;99.90
74171;DHT22;62526;50.948;6.590;2023-08-06T06:39:31;19.90;99.90
74171;DHT22;62526;50.948;6.590;2023-08-06T06:41:59;19.90;99.90
74171;DHT22;62526;50.948;6.590;2023-08-06T06:44:27;20.00;99.90
74171;DHT22;62526;50.948;6.590;2023-08-06T06:46:54;20.00;99.90
74171;DHT22;62526;50.948;6.590;2023-08-06T06:49:22;20.00;99.90
74171;DHT22;62526;50.948;6.590;2023-08-06T06:51:49;20.00;99.90
74171;DHT22;62526;50.948;6.590;2023-08-06T06:54:17;20.00;99.90
74171;DHT22;62526;50.948;6.590;2023-08-06T06:56:44;20.00;99.90
74171;DHT22;62526;50.948;6.590;2023-08-06T06:59:10;20.00;99.90
74171;DHT22;62526;50.948;6.590;2023-08-06T07:01:37;19.70;99.90
74171;DHT22;62526;50.948;6.590;2023-08-06T07:04:04;19.70;99.90
74171;DHT22;62526;50.948;6.590;2023-08-06T07:06:32;19.60;99.90
74171;DHT22;62526;50.948;6.590;2023-08-06T07:08:58;19.60;99.90
74171;DHT22;62526;50.948;6.590;2023-08-06T07:11:26;19.70;99.90
74171;DHT22;62526;50.948;6.590;2023-08-06T07:13:57;19.70;99.90
74171;DHT22;62526;50.948;6.590;2023-08-06T07:16:25;19.70;99.90
74171;DHT22;62526;50.948;6.590;2023-08-06T07:18:54;19.70;99.90
74171;DHT22;62526;50.948;6.590;2023-08-06T07:21:23;19.70;99.90
74171;DHT22;62526;50.948;6.590;2023-08-06T07:23:50;19.60;99.90
74171;DHT22;62526;50.948;6.590;2023-08-06T07:26:19;19.70;99.90
74171;DHT22;62526;50.948;6.590;2023-08-06T07:28:46;19.60;99.90
74171;DHT22;62526;50.948;6.590;2023-08-06T07:31:13;19.70;99.90
74171;DHT22;62526;50.948;6.590;2023-08-06T07:33:40;19.70;99.90
74171;DHT22;62526;50.948;6.590;2023-08-06T07:36:10;19.70;99.90
74171;DHT22;62526;50.948;6.590;2023-08-06T07:38:37;19.80;99.90
74171;DHT22;62526;50.948;6.590;2023-08-06T07:41:04;19.90;99.90
74171;DHT22;62526;50.948;6.590;2023-08-06T07:43:32;19.90;99.90
74171;DHT22;62526;50.948;6.590;2023-08-06T07:46:00;19.70;99.90
74171;DHT22;62526;50.948;6.590;2023-08-06T07:48:28;19.50;99.90
74171;DHT22;62526;50.948;6.590;2023-08-06T07:50:56;19.40;99.90
74171;DHT22;62526;50.948;6.590;2023-08-06T07:53:24;19.10;99.90
74171;DHT22;62526;50.948;6.590;2023-08-06T07:55:51;19.10;99.90
74171;DHT22;62526;50.948;6.590;2023-08-06T07:58:18;19.20;99.90
74171;DHT22;62526;50.948;6.590;2023-08-06T08:00:44;19.50;99.90
74171;DHT22;62526;50.948;6.590;2023-08-06T08:03:13;19.50;99.90
74171;DHT22;62526;50.948;6.590;2023-08-06T08:05:43;19.60;99.90
74171;DHT22;62526;50.948;6.590;2023-08-06T08:08:11;19.70;99.90
74171;DHT22;62526;50.948;6.590;2023-08-06T08:10:38;19.70;99.90
74171;DHT22;62526;50.948;6.590;2023-08-06T08:13:05;19.90;99.90
74171;DHT22;62526;50.948;6.590;2023-08-06T08:15:32;19.90;99.90
74171;DHT22;62526;50.948;6.590;2023-08-06T08:18:00;20.10;99.90
74171;DHT22;62526;50.948;6.590;2023-08-06T08:20:28;20.20;99.90
74171;DHT22;62526;50.948;6.590;2023-08-06T08:22:58;20.20;99.90
74171;DHT22;62526;50.948;6.590;2023-08-06T08:25:24;20.30;99.90
74171;DHT22;62526;50.948;6.590;2023-08-06T08:27:52;20.40;99.90
74171;DHT22;62526;50.948;6.590;2023-08-06T08:30:18;20.40;99.90
74171;DHT22;62526;50.948;6.590;2023-08-06T08:32:46;20.40;99.90
74171;DHT22;62526;50.948;6.590;2023-08-06T08:35:12;20.40;99.90
74171;DHT22;62526;50.948;6.590;2023-08-06T08:37:39;20.50;99.90
74171;DHT22;62526;50.948;6.590;2023-08-06T08:40:08;20.60;99.90
74171;DHT22;62526;50.948;6.590;2023-08-06T08:42:35;20.60;99.90
74171;DHT22;62526;50.948;6.590;2023-08-06T08:45:02;20.70;99.90
74171;DHT22;62526;50.948;6.590;2023-08-06T08:47:29;20.70;99.90
74171;DHT22;62526;50.948;6.590;2023-08-06T08:49:56;20.70;99.90
74171;DHT22;62526;50.948;6.590;2023-08-06T08:52:23;20.70;99.90
74171;DHT22;62526;50.948;6.590;2023-08-06T08:54:50;20.80;99.90
74171;DHT22;62526;50.948;6.590;2023-08-06T08:57:16;20.60;99.90
74171;DHT22;62526;50.948;6.590;2023-08-06T08:59:43;20.70;99.90
74171;DHT22;62526;50.948;6.590;2023-08-06T09:02:11;20.60;99.90
74171;DHT22;62526;50.948;6.590;2023-08-06T09:04:36;20.50;99.90
74171;DHT22;62526;50.948;6.590;2023-08-06T09:07:03;20.40;99.90
74171;DHT22;62526;50.948;6.590;2023-08-06T09:09:33;20.20;99.90
74171;DHT22;62526;50.948;6.590;2023-08-06T09:12:00;20.10;99.90
74171;DHT22;62526;50.948;6.590;2023-08-06T09:14:26;19.70;99.90
74171;DHT22;62526;50.948;6.590;2023-08-06T09:16:53;19.60;99.90
74171;DHT22;62526;50.948;6.590;2023-08-06T09:19:24;19.50;99.90
74171;DHT22;62526;50.948;6.590;2023-08-06T09:21:54;20.50;99.90
74171;DHT22;62526;50.948;6.590;2023-08-06T09:24:22;19.10;99.90
74171;DHT22;62526;50.948;6.590;2023-08-06T09:26:48;19.00;99.90
74171;DHT22;62526;50.948;6.590;2023-08-06T09:29:19;18.90;99.90
74171;DHT22;62526;50.948;6.590;2023-08-06T09:31:47;18.70;99.90
74171;DHT22;62526;50.948;6.590;2023-08-06T09:34:16;18.40;99.90
74171;DHT22;62526;50.948;6.590;2023-08-06T09:36:52;18.10;99.90
74171;DHT22;62526;50.948;6.590;2023-08-06T09:42:04;17.00;99.90
74171;DHT22;62526;50.948;6.590;2023-08-06T09:44:33;16.20;99.90
74171;DHT22;62526;50.948;6.590;2023-08-06T09:47:07;16.00;99.90
74171;DHT22;62526;50.948;6.590;2023-08-06T09:49:49;16.20;99.90
74171;DHT22;62526;50.948;6.590;2023-08-06T09:52:20;16.40;99.90
74171;DHT22;62526;50.948;6.590;2023-08-06T09:55:00;16.40;99.90
74171;DHT22;62526;50.948;6.590;2023-08-06T09:57:27;16.70;99.90
74171;DHT22;62526;50.948;6.590;2023-08-06T10:00:06;17.10;99.90
74171;DHT22;62526;50.948;6.590;2023-08-06T10:02:38;16.70;99.90
74171;DHT22;62526;50.948;6.590;2023-08-06T10:05:06;16.40;99.90
74171;DHT22;62526;50.948;6.590;2023-08-06T10:07:34;15.90;99.90
74171;DHT22;62526;50.948;6.590;2023-08-06T10:10:03;16.00;99.90
74171;DHT22;62526;50.948;6.590;2023-08-06T10:12:43;16.00;99.90
74171;DHT22;62526;50.948;6.590;2023-08-06T10:15:17;16.00;99.90
74171;DHT22;62526;50.948;6.590;2023-08-06T10:17:49;16.00;99.90
74171;DHT22;62526;50.948;6.590;2023-08-06T10:20:34;16.20;99.90
74171;DHT22;62526;50.948;6.590;2023-08-06T10:23:02;16.30;99.90
74171;DHT22;62526;50.948;6.590;2023-08-06T10:25:32;16.40;99.90
74171;DHT22;62526;50.948;6.590;2023-08-06T10:28:12;15.90;99.90
74171;DHT22;62526;50.948;6.590;2023-08-06T10:30:46;16.00;99.90
74171;DHT22;62526;50.948;6.590;2023-08-06T10:33:19;15.50;99.90
74171;DHT22;62526;50.948;6.590;2023-08-06T10:35:48;15.70;99.90
74171;DHT22;62526;50.948;6.590;2023-08-06T10:38:33;15.90;99.90
74171;DHT22;62526;50.948;6.590;2023-08-06T10:41:03;16.00;99.90
74171;DHT22;62526;50.948;6.590;2023-08-06T10:43:36;16.00;99.90
74171;DHT22;62526;50.948;6.590;2023-08-06T10:48:52;15.80;99.90
74171;DHT22;62526;50.948;6.590;2023-08-06T10:54:08;16.20;99.90
74171;DHT22;62526;50.948;6.590;2023-08-06T10:56:39;15.80;99.90
74171;DHT22;62526;50.948;6.590;2023-08-06T10:59:07;16.00;99.90
74171;DHT22;62526;50.948;6.590;2023-08-06T11:01:36;16.00;99.90
74171;DHT22;62526;50.948;6.590;2023-08-06T11:04:21;16.00;99.90
74171;DHT22;62526;50.948;6.590;2023-08-06T11:07:02;16.20;99.90
74171;DHT22;62526;50.948;6.590;2023-08-06T11:09:30;16.30;99.90
74171;DHT22;62526;50.948;6.590;2023-08-06T11:12:12;16.20;99.90
74171;DHT22;62526;50.948;6.590;2023-08-06T11:14:52;16.40;99.90
74171;DHT22;62526;50.948;6.590;2023-08-06T11:17:24;16.20;99.90
74171;DHT22;62526;50.948;6.590;2023-08-06T11:22:35;16.20;99.90
74171;DHT22;62526;50.948;6.590;2023-08-06T11:25:40;16.20;99.90
74171;DHT22;62526;50.948;6.590;2023-08-06T11:28:16;16.10;99.90
74171;DHT22;62526;50.948;6.590;2023-08-06T11:30:58;16.10;99.90
74171;DHT22;62526;50.948;6.590;2023-08-06T11:33:36;15.90;99.90
74171;DHT22;62526;50.948;6.590;2023-08-06T11:36:04;16.00;99.90
74171;DHT22;62526;50.948;6.590;2023-08-06T11:38:33;15.90;99.90
74171;DHT22;62526;50.948;6.590;2023-08-06T11:41:21;16.10;99.90
74171;DHT22;62526;50.948;6.590;2023-08-06T11:43:59;16.10;99.90
74171;DHT22;62526;50.948;6.590;2023-08-06T11:46:51;15.80;99.90
74171;DHT22;62526;50.948;6.590;2023-08-06T11:49:39;15.90;99.90
74171;DHT22;62526;50.948;6.590;2023-08-06T11:52:16;15.90;99.90
74171;DHT22;62526;50.948;6.590;2023-08-06T11:54:45;16.20;99.90
74171;DHT22;62526;50.948;6.590;2023-08-06T11:59:55;16.40;99.90
74171;DHT22;62526;50.948;6.590;2023-08-06T12:02:24;16.30;99.90
74171;DHT22;62526;50.948;6.590;2023-08-06T12:05:04;16.60;99.90
74171;DHT22;62526;50.948;6.590;2023-08-06T12:07:32;16.70;99.90
74171;DHT22;62526;50.948;6.590;2023-08-06T12:10:09;16.70;99.90
74171;DHT22;62526;50.948;6.590;2023-08-06T12:15:20;16.80;99.90
74171;DHT22;62526;50.948;6.590;2023-08-06T12:17:53;16.70;99.90
74171;DHT22;62526;50.948;6.590;2023-08-06T12:20:24;16.70;99.90
74171;DHT22;62526;50.948;6.590;2023-08-06T12:23:00;16.70;99.90
74171;DHT22;62526;50.948;6.590;2023-08-06T12:25:32;17.00;99.90
74171;DHT22;62526;50.948;6.590;2023-08-06T12:28:01;17.00;99.90
74171;DHT22;62526;50.948;6.590;2023-08-06T12:30:33;17.20;99.90
74171;DHT22;62526;50.948;6.590;2023-08-06T12:33:04;17.20;99.90
74171;DHT22;62526;50.948;6.590;2023-08-06T12:35:33;17.30;99.90
74171;DHT22;62526;50.948;6.590;2023-08-06T12:38:04;17.30;99.90
74171;DHT22;62526;50.948;6.590;2023-08-06T12:40:31;17.40;99.90
74171;DHT22;62526;50.948;6.590;2023-08-06T12:42:58;17.00;99.90
74171;DHT22;62526;50.948;6.590;2023-08-06T12:45:26;16.90;99.90
74171;DHT22;62526;50.948;6.590;2023-08-06T12:47:55;16.90;99.90
74171;DHT22;62526;50.948;6.590;2023-08-06T12:50:22;17.10;99.90
74171;DHT22;62526;50.948;6.590;2023-08-06T12:52:49;17.20;99.90
74171;DHT22;62526;50.948;6.590;2023-08-06T12:55:16;17.40;99.90
74171;DHT22;62526;50.948;6.590;2023-08-06T12:57:44;17.40;99.90
74171;DHT22;62526;50.948;6.590;2023-08-06T13:00:12;17.20;99.90
74171;DHT22;62526;50.948;6.590;2023-08-06T13:02:40;17.10;99.90
74171;DHT22;62526;50.948;6.590;2023-08-06T13:05:07;17.00;99.90
74171;DHT22;62526;50.948;6.590;2023-08-06T13:07:36;16.80;99.90
74171;DHT22;62526;50.948;6.590;2023-08-06T13:10:08;16.90;99.90
74171;DHT22;62526;50.948;6.590;2023-08-06T13:12:49;16.80;99.90
74171;DHT22;62526;50.948;6.590;2023-08-06T13:15:22;16.90;99.90
74171;DHT22;62526;50.948;6.590;2023-08-06T13:18:05;17.00;99.90
74171;DHT22;62526;50.948;6.590;2023-08-06T13:20:38;17.00;99.90
74171;DHT22;62526;50.948;6.590;2023-08-06T13:23:16;17.10;99.90
74171;DHT22;62526;50.948;6.590;2023-08-06T13:25:46;17.00;99.90
74171;DHT22;62526;50.948;6.590;2023-08-06T13:28:17;16.80;99.90
74171;DHT22;62526;50.948;6.590;2023-08-06T13:30:59;17.00;99.90
74171;DHT22;62526;50.948;6.590;2023-08-06T13:33:27;17.20;99.90
74171;DHT22;62526;50.948;6.590;2023-08-06T13:35:55;17.20;99.90
74171;DHT22;62526;50.948;6.590;2023-08-06T13:38:29;17.50;99.90
74171;DHT22;62526;50.948;6.590;2023-08-06T13:41:03;17.50;99.90
74171;DHT22;62526;50.948;6.590;2023-08-06T13:43:37;17.40;99.90
74171;DHT22;62526;50.948;6.590;2023-08-06T13:46:10;16.80;99.90
74171;DHT22;62526;50.948;6.590;2023-08-06T13:48:37;16.80;99.90
74171;DHT22;62526;50.948;6.590;2023-08-06T13:53:49;16.80;99.90
74171;DHT22;62526;50.948;6.590;2023-08-06T13:56:18;16.70;99.90
74171;DHT22;62526;50.948;6.590;2023-08-06T13:58:47;16.70;99.90
74171;DHT22;62526;50.948;6.590;2023-08-06T14:01:16;16.50;99.90
74171;DHT22;62526;50.948;6.590;2023-08-06T14:03:41;16.50;99.90
74171;DHT22;62526;50.948;6.590;2023-08-06T14:06:08;16.50;99.90
74171;DHT22;62526;50.948;6.590;2023-08-06T14:08:36;16.90;99.90
74171;DHT22;62526;50.948;6.590;2023-08-06T14:11:05;17.00;99.90
74171;DHT22;62526;50.948;6.590;2023-08-06T14:13:32;17.10;99.90
74171;DHT22;62526;50.948;6.590;2023-08-06T14:16:00;17.30;99.90
74171;DHT22;62526;50.948;6.590;2023-08-06T14:18:27;17.30;99.90
74171;DHT22;62526;50.948;6.590;2023-08-06T14:20:54;17.10;99.90
74171;DHT22;62526;50.948;6.590;2023-08-06T14:23:21;17.00;99.90
74171;DHT22;62526;50.948;6.590;2023-08-06T14:25:49;17.00;99.90
74171;DHT22;62526;50.948;6.590;2023-08-06T14:28:16;17.00;99.90
74171;DHT22;62526;50.948;6.590;2023-08-06T14:30:42;17.20;99.90
74171;DHT22;62526;50.948;6.590;2023-08-06T14:33:10;17.40;99.90
74171;DHT22;62526;50.948;6.590;2023-08-06T14:35:38;17.40;99.90
74171;DHT22;62526;50.948;6.590;2023-08-06T14:38:05;17.50;99.90
74171;DHT22;62526;50.948;6.590;2023-08-06T14:40:32;17.20;99.90
74171;DHT22;62526;50.948;6.590;2023-08-06T14:43:00;17.40;99.90
74171;DHT22;62526;50.948;6.590;2023-08-06T14:45:27;17.40;99.90
74171;DHT22;62526;50.948;6.590;2023-08-06T14:47:54;17.00;99.90
74171;DHT22;62526;50.948;6.590;2023-08-06T14:50:21;17.00;99.90
74171;DHT22;62526;50.948;6.590;2023-08-06T14:52:50;17.10;99.90
74171;DHT22;62526;50.948;6.590;2023-08-06T14:55:25;17.10;99.90
74171;DHT22;62526;50.948;6.590;2023-08-06T14:57:53;17.00;99.90
74171;DHT22;62526;50.948;6.590;2023-08-06T15:00:20;17.00;99.90
74171;DHT22;62526;50.948;6.590;2023-08-06T15:02:47;17.20;99.90
74171;DHT22;62526;50.948;6.590;2023-08-06T15:05:13;17.20;99.90
74171;DHT22;62526;50.948;6.590;2023-08-06T15:07:41;17.20;99.90
74171;DHT22;62526;50.948;6.590;2023-08-06T15:10:07;16.90;99.90
74171;DHT22;62526;50.948;6.590;2023-08-06T15:12:34;16.90;99.90
74171;DHT22;62526;50.948;6.590;2023-08-06T15:15:01;17.10;99.90
74171;DHT22;62526;50.948;6.590;2023-08-06T15:17:27;17.10;99.90
74171;DHT22;62526;50.948;6.590;2023-08-06T15:19:56;17.10;99.90
74171;DHT22;62526;50.948;6.590;2023-08-06T15:22:22;17.20;99.90
74171;DHT22;62526;50.948;6.590;2023-08-06T15:24:49;17.30;99.90
74171;DHT22;62526;50.948;6.590;2023-08-06T15:27:16;17.10;99.90
74171;DHT22;62526;50.948;6.590;2023-08-06T15:29:42;17.20;99.90
74171;DHT22;62526;50.948;6.590;2023-08-06T15:32:11;16.90;99.90
74171;DHT22;62526;50.948;6.590;2023-08-06T15:34:40;17.30;99.90
74171;DHT22;62526;50.948;6.590;2023-08-06T15:37:08;17.60;99.90
74171;DHT22;62526;50.948;6.590;2023-08-06T15:39:35;17.90;99.90
74171;DHT22;62526;50.948;6.590;2023-08-06T15:42:02;17.50;99.90
74171;DHT22;62526;50.948;6.590;2023-08-06T15:44:31;17.10;99.90
74171;DHT22;62526;50.948;6.590;2023-08-06T15:46:58;17.10;99.90
74171;DHT22;62526;50.948;6.590;2023-08-06T15:49:25;17.30;99.90
74171;DHT22;62526;50.948;6.590;2023-08-06T15:51:58;17.30;99.90
74171;DHT22;62526;50.948;6.590;2023-08-06T15:54:25;17.30;99.90
74171;DHT22;62526;50.948;6.590;2023-08-06T15:56:55;17.20;99.90
74171;DHT22;62526;50.948;6.590;2023-08-06T15:59:25;17.10;99.90
74171;DHT22;62526;50.948;6.590;2023-08-06T16:01:52;17.10;99.90
74171;DHT22;62526;50.948;6.590;2023-08-06T16:04:20;17.20;99.90
74171;DHT22;62526;50.948;6.590;2023-08-06T16:06:46;17.10;99.90